Aeroporto :
LOGIN :

Iscrizione | Disclaimer

   EN    FR    IT 

 










Sommario :    VFR   VFR Marginale   IFR   IFR Intensivo   IFR Molto Intensivo
Visibilità : 
Base nubi : 
>= 8 km
>= 3000ft
5 / 8 km
1000 / 3000 ft
1500m / 5 km
500 / 1000 ft
800 / 1500m
200 / 500 ft
< 800m
< 200 ft
Simboli :   Temporali  Nebbia  Neve Forte  Precipitazioni Forti  Vento > 20 kt
SIGMETs :   Varie  Temporali  Ghiacco  Turbolenza  Onda orograficha  Ceneri Vulcaniche







- Altitudine del aeroporto : 20 ft
- Codice IATA : DLM


LTBS - Dalaman

ULTIMO METAR :
  • 191550Z 20008KT 9999 FEW030 26/21 Q1010 NOSIG

METARs OBSOLETI :
  • 191520Z 22010KT 9999 SCT030 27/20 Q1010 NOSIG
  • 191450Z 22008KT 9999 SCT030 27/21 Q1010 NOSIG RMK RWY19 20011KT
  • 191420Z 21010KT 9999 SCT030 28/21 Q1010 NOSIG RMK RWY19 20011KT
  • 191350Z 21010KT 9999 SCT030 28/21 Q1010 NOSIG RMK RWY19 19011KT
  • 191320Z 21009KT 9999 SCT030 29/21 Q1010 NOSIG RMK RWY19 19010KT

TAF TAF LTBS
Valido dal 19 a 12 ore il 20 a 12 ore UTC


191040Z 1912/2012 21012KT 9999 FEW030
BECMG 1916/1918 VRB02KT CAVOK
BECMG 2006/2008 21012KT FEW030
Nessun NOTAM noto per questo aeroporto.



MetMap, La meteo Aeronautica in un colpo d'occhio ! - Copyright ORBIFLY Dicembre 2007 - Disclaimer

ORBIFLY MET'MAP TEAM :

Programmazione e sviluppo : Alexandra Zaïnal
Concezione e sviluppo : Baudouin d'Aumeries
Co-Programmazione e sviluppo : Marc-Olivier Méhu
Supporto tecnico e logistico : Manuel Goepfert
Aiuto per la traduzione : Arnaldo La Scala

Contatto : metmap@orbifly.com




FONTI E CREDITI :

   NOAA